createdAt,value
2023-05-11T00:03:34.120Z,15.49
2023-05-11T00:08:36.304Z,15.43
2023-05-11T00:13:38.165Z,15.35
2023-05-11T00:18:40.128Z,15.27
2023-05-11T00:23:42.027Z,15.20
2023-05-11T00:28:45.431Z,15.15
2023-05-11T00:33:47.395Z,15.13
2023-05-11T00:38:50.211Z,15.08
2023-05-11T00:43:52.134Z,15.05
2023-05-11T00:48:54.403Z,15.03
2023-05-11T00:53:56.336Z,15.01
2023-05-11T00:58:58.451Z,15.00
2023-05-11T01:04:00.546Z,14.98
2023-05-11T01:09:29.046Z,14.95
2023-05-11T01:14:37.631Z,14.87
2023-05-11T01:19:48.798Z,14.85
2023-05-11T01:25:14.051Z,14.81
2023-05-11T01:30:41.906Z,14.79
2023-05-11T01:35:51.006Z,14.77
2023-05-11T01:40:57.594Z,14.79
2023-05-11T01:46:02.266Z,14.78
2023-05-11T01:51:05.879Z,14.73
2023-05-11T01:56:09.537Z,14.68
2023-05-11T02:01:12.706Z,14.62
2023-05-11T02:06:18.117Z,14.57
2023-05-11T02:11:23.954Z,14.54
2023-05-11T02:16:30.111Z,14.53
2023-05-11T02:21:33.127Z,14.47
2023-05-11T02:26:35.329Z,14.40
2023-05-11T02:31:44.191Z,14.34
2023-05-11T02:36:53.669Z,14.28
2023-05-11T02:42:01.088Z,14.24
2023-05-11T02:47:06.567Z,14.19
2023-05-11T02:52:11.662Z,14.15
2023-05-11T02:57:19.746Z,14.12
2023-05-11T03:02:22.378Z,14.11
2023-05-11T03:07:24.442Z,14.06
2023-05-11T03:12:31.585Z,14.05
2023-05-11T03:17:36.055Z,14.06
2023-05-11T03:22:39.539Z,14.10
2023-05-11T03:27:44.048Z,14.14
2023-05-11T03:32:46.567Z,14.14
2023-05-11T03:37:51.582Z,14.16
2023-05-11T03:42:55.733Z,14.16
2023-05-11T03:48:00.472Z,14.15
2023-05-11T03:53:03.476Z,14.19
2023-05-11T03:58:09.937Z,14.22
2023-05-11T04:03:12.654Z,14.19
2023-05-11T04:08:15.484Z,14.19
2023-05-11T04:13:17.397Z,14.23
2023-05-11T04:18:19.658Z,14.22
2023-05-11T04:23:21.926Z,14.14
2023-05-11T04:28:27.667Z,14.11
2023-05-11T04:33:30.596Z,14.14
2023-05-11T04:38:34.088Z,14.16
2023-05-11T04:43:36.576Z,14.25
2023-05-11T04:48:38.436Z,14.35
2023-05-11T04:53:40.681Z,14.44
2023-05-11T04:58:42.909Z,14.50
2023-05-11T05:03:48.655Z,14.58
2023-05-11T05:08:50.822Z,14.65
2023-05-11T05:13:54.945Z,14.73
2023-05-11T05:18:57.450Z,14.85
2023-05-11T05:23:59.825Z,14.96
2023-05-11T05:29:01.749Z,15.07
2023-05-11T05:34:04.723Z,15.19
2023-05-11T05:39:12.029Z,15.31
2023-05-11T05:44:15.165Z,15.44
2023-05-11T05:49:17.710Z,15.60
2023-05-11T05:54:19.621Z,15.68
2023-05-11T05:59:23.590Z,15.71
2023-05-11T06:04:30.509Z,15.76
2023-05-11T06:09:32.424Z,15.79
2023-05-11T06:14:34.356Z,15.86
2023-05-11T06:19:38.850Z,15.99
2023-05-11T06:24:40.953Z,16.11
2023-05-11T06:29:44.644Z,16.25
2023-05-11T06:34:46.943Z,16.37
2023-05-11T06:39:49.809Z,16.45
2023-05-11T06:44:52.014Z,16.57
2023-05-11T06:49:54.428Z,16.74
2023-05-11T06:54:56.729Z,16.91
2023-05-11T06:59:58.775Z,17.04
2023-05-11T07:05:00.728Z,17.15
2023-05-11T07:10:02.818Z,17.31
2023-05-11T07:15:05.005Z,17.44
2023-05-11T07:20:08.099Z,17.59
2023-05-11T07:25:10.199Z,17.74
2023-05-11T07:30:12.582Z,17.86
2023-05-11T07:35:17.620Z,17.91
2023-05-11T07:40:19.936Z,17.90
2023-05-11T07:45:22.423Z,18.04
2023-05-11T07:50:24.972Z,18.18
2023-05-11T07:55:30.163Z,18.29
2023-05-11T08:00:31.982Z,18.41
2023-05-11T08:05:37.535Z,18.43
2023-05-11T08:10:39.866Z,18.40
2023-05-11T08:15:41.726Z,18.45
2023-05-11T08:20:43.725Z,18.56
2023-05-11T08:25:52.794Z,18.71
2023-05-11T08:30:58.608Z,18.77
2023-05-11T08:36:00.643Z,18.85
2023-05-11T08:41:03.382Z,18.96
2023-05-11T08:46:09.256Z,19.15
2023-05-11T08:51:11.276Z,19.29
2023-05-11T08:56:13.653Z,19.36
2023-05-11T09:01:23.586Z,19.44
2023-05-11T09:06:27.230Z,19.56
2023-05-11T09:11:30.686Z,19.70
2023-05-11T09:16:37.303Z,19.83
2023-05-11T09:21:39.710Z,19.87
2023-05-11T09:26:41.594Z,19.87
2023-05-11T09:31:45.282Z,19.94
2023-05-11T09:36:54.309Z,20.03
2023-05-11T09:42:19.812Z,20.24
2023-05-11T09:47:24.750Z,20.27
2023-05-11T09:52:27.106Z,20.30
2023-05-11T09:57:31.648Z,20.39
2023-05-11T10:02:34.601Z,20.51
2023-05-11T10:07:37.507Z,20.52
2023-05-11T10:12:40.507Z,20.42
2023-05-11T10:17:46.337Z,20.50
2023-05-11T10:22:50.836Z,20.53
2023-05-11T10:27:55.095Z,20.55
2023-05-11T10:32:57.656Z,20.56
2023-05-11T10:38:01.219Z,20.64
2023-05-11T10:43:06.269Z,20.75
2023-05-11T10:48:27.132Z,20.75
2023-05-11T10:53:38.056Z,20.69
2023-05-11T10:59:09.746Z,20.69
2023-05-11T11:04:13.783Z,20.79
2023-05-11T11:09:16.583Z,20.73
2023-05-11T11:14:19.394Z,20.74
2023-05-11T11:19:30.414Z,20.71
2023-05-11T11:24:38.543Z,20.69
2023-05-11T11:29:40.865Z,20.79
2023-05-11T11:34:44.204Z,20.82
2023-05-11T11:39:50.781Z,20.85
2023-05-11T11:44:52.651Z,20.71
2023-05-11T11:49:55.522Z,20.66
2023-05-11T11:55:02.444Z,20.75
2023-05-11T12:00:11.483Z,20.60
2023-05-11T12:05:19.120Z,20.45
2023-05-11T12:10:23.272Z,20.43
2023-05-11T12:15:31.466Z,20.34
2023-05-11T12:20:33.391Z,20.24
2023-05-11T12:25:35.612Z,20.16
2023-05-11T12:31:00.606Z,20.07
2023-05-11T12:36:02.889Z,20.06
2023-05-11T12:41:06.342Z,20.02
2023-05-11T12:46:08.360Z,19.93
2023-05-11T12:51:10.592Z,19.87
2023-05-11T12:56:12.578Z,19.85
2023-05-11T13:01:14.461Z,19.88
2023-05-11T13:06:20.851Z,19.91
2023-05-11T13:11:27.093Z,19.96
2023-05-11T13:16:31.153Z,20.02
2023-05-11T13:21:33.723Z,20.03
2023-05-11T13:26:35.701Z,20.08
2023-05-11T13:31:48.279Z,20.25
2023-05-11T13:36:50.906Z,20.39
2023-05-11T13:41:55.637Z,20.54
2023-05-11T13:46:57.947Z,20.66
2023-05-11T13:52:00.661Z,20.85
2023-05-11T13:57:03.114Z,20.94
2023-05-11T14:02:05.580Z,21.01
2023-05-11T14:07:08.748Z,21.05
2023-05-11T14:12:10.697Z,21.06
2023-05-11T14:17:13.727Z,20.93
2023-05-11T14:22:15.953Z,20.84
2023-05-11T14:27:18.032Z,20.81
2023-05-11T14:32:21.318Z,20.79
2023-05-11T14:37:23.328Z,20.84
2023-05-11T14:42:25.782Z,20.87
2023-05-11T14:47:27.845Z,21.01
2023-05-11T14:52:31.252Z,20.94
2023-05-11T14:57:33.397Z,20.82
2023-05-11T15:02:35.368Z,20.67
2023-05-11T15:07:38.787Z,20.52
2023-05-11T15:12:40.706Z,20.40
2023-05-11T15:17:42.571Z,20.42
2023-05-11T15:22:45.035Z,20.40
2023-05-11T15:27:47.527Z,20.37
2023-05-11T15:32:49.487Z,20.36
2023-05-11T15:37:51.545Z,20.40
2023-05-11T15:42:53.773Z,20.45
2023-05-11T15:47:55.691Z,20.40
2023-05-11T15:52:57.508Z,20.36
2023-05-11T15:57:59.396Z,20.36
2023-05-11T16:03:05.865Z,20.39
2023-05-11T16:08:11.374Z,20.42
2023-05-11T16:13:13.447Z,20.42
2023-05-11T16:18:16.798Z,20.39
2023-05-11T16:23:18.707Z,20.33
2023-05-11T16:28:20.591Z,20.32
2023-05-11T16:33:22.584Z,20.32
2023-05-11T16:38:24.492Z,20.27
2023-05-11T16:43:26.441Z,20.25
2023-05-11T16:48:28.500Z,20.18
2023-05-11T16:53:30.431Z,20.08
2023-05-11T16:58:32.575Z,19.98
2023-05-11T17:03:35.161Z,19.91
2023-05-11T17:08:39.143Z,19.85
2023-05-11T17:13:41.190Z,19.84
2023-05-11T17:18:43.146Z,19.81
2023-05-11T17:23:46.215Z,19.75
2023-05-11T17:28:51.506Z,19.68
2023-05-11T17:33:53.553Z,19.63
2023-05-11T17:38:55.795Z,19.56
2023-05-11T17:43:57.900Z,19.50
2023-05-11T17:49:01.421Z,19.44
2023-05-11T17:54:03.589Z,19.37
2023-05-11T17:59:05.942Z,19.32
2023-05-11T18:04:08.081Z,19.25
2023-05-11T18:09:12.504Z,19.19
2023-05-11T18:14:14.413Z,19.16
2023-05-11T18:19:18.190Z,19.12
2023-05-11T18:24:20.348Z,19.09
2023-05-11T18:29:23.176Z,19.06
2023-05-11T18:34:25.071Z,19.00
2023-05-11T18:39:27.086Z,18.94
2023-05-11T18:44:29.372Z,18.90
2023-05-11T18:49:31.418Z,18.87
2023-05-11T18:54:34.225Z,18.82
2023-05-11T18:59:36.077Z,18.76
2023-05-11T19:04:38.013Z,18.71
2023-05-11T19:09:39.898Z,18.71
2023-05-11T19:14:41.862Z,18.69
2023-05-11T19:19:43.669Z,18.68
2023-05-11T19:24:45.499Z,18.64
2023-05-11T19:29:51.178Z,18.63
2023-05-11T19:34:54.115Z,18.60
2023-05-11T19:40:11.165Z,18.56
2023-05-11T19:45:18.107Z,18.53
2023-05-11T19:50:22.572Z,18.50
2023-05-11T19:55:26.172Z,18.47
2023-05-11T20:00:28.228Z,18.39
2023-05-11T20:05:31.134Z,18.33
2023-05-11T20:10:33.577Z,18.28
2023-05-11T20:15:35.590Z,18.23
2023-05-11T20:20:37.444Z,18.18
2023-05-11T20:25:43.723Z,18.13
2023-05-11T20:30:45.680Z,18.07
2023-05-11T20:35:47.693Z,18.07
2023-05-11T20:40:49.623Z,18.05
2023-05-11T20:45:52.199Z,18.05
2023-05-11T20:50:55.803Z,18.03
2023-05-11T20:55:57.788Z,18.02
2023-05-11T21:01:02.647Z,18.01
2023-05-11T21:06:05.849Z,17.98
2023-05-11T21:11:07.702Z,17.97
2023-05-11T21:16:09.673Z,17.97
2023-05-11T21:21:11.858Z,17.98
2023-05-11T21:26:15.213Z,17.94
2023-05-11T21:31:17.588Z,17.89
2023-05-11T21:36:19.684Z,17.84
2023-05-11T21:41:21.484Z,17.79
2023-05-11T21:46:23.770Z,17.76
2023-05-11T21:51:25.588Z,17.73
2023-05-11T21:56:27.382Z,17.70
2023-05-11T22:01:29.222Z,17.66
2023-05-11T22:06:31.594Z,17.62
2023-05-11T22:11:37.890Z,17.58
2023-05-11T22:16:39.847Z,17.58
2023-05-11T22:21:41.764Z,17.58
2023-05-11T22:26:44.706Z,17.56
2023-05-11T22:31:46.700Z,17.56
2023-05-11T22:36:48.594Z,17.54
2023-05-11T22:41:50.673Z,17.53
2023-05-11T22:46:52.736Z,17.51
2023-05-11T22:51:58.742Z,17.48
2023-05-11T22:57:03.722Z,17.47
2023-05-11T23:02:05.750Z,17.47
2023-05-11T23:07:07.970Z,17.45
2023-05-11T23:12:10.847Z,17.40
2023-05-11T23:17:13.379Z,17.38
2023-05-11T23:22:15.248Z,17.35
2023-05-11T23:27:17.314Z,17.33
2023-05-11T23:32:19.126Z,17.32
2023-05-11T23:37:22.329Z,17.28
2023-05-11T23:42:24.158Z,17.24
2023-05-11T23:47:27.138Z,17.24
2023-05-11T23:52:29.827Z,17.21
2023-05-11T23:57:32.245Z,17.22
